sensor_id;sensor_type;location;lat;lon;timestamp;P1;durP1;ratioP1;P2;durP2;ratioP2
6354;SDS011;3210;48.708;9.030;2023-11-18T00:00:11;5.13;;;3.57;;
6354;SDS011;3210;48.708;9.030;2023-11-18T00:02:41;4.60;;;3.63;;
6354;SDS011;3210;48.708;9.030;2023-11-18T00:05:10;5.50;;;3.63;;
6354;SDS011;3210;48.708;9.030;2023-11-18T00:07:37;3.10;;;2.90;;
6354;SDS011;3210;48.708;9.030;2023-11-18T00:10:04;3.40;;;3.10;;
6354;SDS011;3210;48.708;9.030;2023-11-18T00:12:32;4.03;;;3.20;;
6354;SDS011;3210;48.708;9.030;2023-11-18T00:15:00;2.93;;;2.60;;
6354;SDS011;3210;48.708;9.030;2023-11-18T00:17:28;5.90;;;3.80;;
6354;SDS011;3210;48.708;9.030;2023-11-18T00:19:55;3.60;;;3.30;;
6354;SDS011;3210;48.708;9.030;2023-11-18T00:22:23;3.60;;;3.30;;
6354;SDS011;3210;48.708;9.030;2023-11-18T00:24:50;3.80;;;3.50;;
6354;SDS011;3210;48.708;9.030;2023-11-18T00:27:17;3.07;;;2.60;;
6354;SDS011;3210;48.708;9.030;2023-11-18T00:29:44;4.40;;;3.60;;
6354;SDS011;3210;48.708;9.030;2023-11-18T00:32:10;3.40;;;3.10;;
6354;SDS011;3210;48.708;9.030;2023-11-18T00:34:37;4.70;;;3.57;;
6354;SDS011;3210;48.708;9.030;2023-11-18T00:37:04;3.90;;;3.50;;
6354;SDS011;3210;48.708;9.030;2023-11-18T00:39:33;4.47;;;3.60;;
6354;SDS011;3210;48.708;9.030;2023-11-18T00:42:00;4.17;;;3.87;;
6354;SDS011;3210;48.708;9.030;2023-11-18T00:44:27;4.13;;;3.73;;
6354;SDS011;3210;48.708;9.030;2023-11-18T00:46:54;4.17;;;3.57;;
6354;SDS011;3210;48.708;9.030;2023-11-18T00:49:22;4.27;;;3.87;;
6354;SDS011;3210;48.708;9.030;2023-11-18T00:51:50;4.60;;;3.77;;
6354;SDS011;3210;48.708;9.030;2023-11-18T00:54:17;6.37;;;4.70;;
6354;SDS011;3210;48.708;9.030;2023-11-18T00:56:45;4.90;;;4.10;;
6354;SDS011;3210;48.708;9.030;2023-11-18T00:59:12;5.33;;;3.60;;
6354;SDS011;3210;48.708;9.030;2023-11-18T01:01:39;3.90;;;3.70;;
6354;SDS011;3210;48.708;9.030;2023-11-18T01:04:06;5.27;;;3.87;;
6354;SDS011;3210;48.708;9.030;2023-11-18T01:06:33;3.57;;;3.07;;
6354;SDS011;3210;48.708;9.030;2023-11-18T01:09:00;4.10;;;2.90;;
6354;SDS011;3210;48.708;9.030;2023-11-18T01:11:28;9.67;;;4.97;;
6354;SDS011;3210;48.708;9.030;2023-11-18T01:13:56;3.90;;;3.50;;
6354;SDS011;3210;48.708;9.030;2023-11-18T01:16:23;5.80;;;4.47;;
6354;SDS011;3210;48.708;9.030;2023-11-18T01:18:50;4.20;;;3.70;;
6354;SDS011;3210;48.708;9.030;2023-11-18T01:21:17;7.63;;;4.70;;
6354;SDS011;3210;48.708;9.030;2023-11-18T01:23:43;6.23;;;4.87;;
6354;SDS011;3210;48.708;9.030;2023-11-18T01:26:10;7.17;;;4.60;;
6354;SDS011;3210;48.708;9.030;2023-11-18T01:28:38;7.30;;;4.07;;
6354;SDS011;3210;48.708;9.030;2023-11-18T01:31:09;4.50;;;4.10;;
6354;SDS011;3210;48.708;9.030;2023-11-18T01:33:36;7.83;;;4.37;;
6354;SDS011;3210;48.708;9.030;2023-11-18T01:36:05;3.80;;;3.50;;
6354;SDS011;3210;48.708;9.030;2023-11-18T01:38:33;4.07;;;3.77;;
6354;SDS011;3210;48.708;9.030;2023-11-18T01:41:00;5.30;;;3.90;;
6354;SDS011;3210;48.708;9.030;2023-11-18T01:43:27;4.67;;;3.50;;
6354;SDS011;3210;48.708;9.030;2023-11-18T01:45:56;4.37;;;3.07;;
6354;SDS011;3210;48.708;9.030;2023-11-18T01:48:28;3.70;;;3.40;;
6354;SDS011;3210;48.708;9.030;2023-11-18T01:50:58;3.90;;;2.90;;
6354;SDS011;3210;48.708;9.030;2023-11-18T01:53:28;3.33;;;3.03;;
6354;SDS011;3210;48.708;9.030;2023-11-18T01:55:55;3.03;;;2.67;;
6354;SDS011;3210;48.708;9.030;2023-11-18T01:58:24;3.90;;;3.60;;
6354;SDS011;3210;48.708;9.030;2023-11-18T02:00:52;3.87;;;3.33;;
6354;SDS011;3210;48.708;9.030;2023-11-18T02:03:19;3.67;;;3.33;;
6354;SDS011;3210;48.708;9.030;2023-11-18T02:05:48;3.43;;;3.20;;
6354;SDS011;3210;48.708;9.030;2023-11-18T02:08:16;3.87;;;3.17;;
6354;SDS011;3210;48.708;9.030;2023-11-18T02:10:46;3.00;;;2.70;;
6354;SDS011;3210;48.708;9.030;2023-11-18T02:13:18;3.20;;;2.90;;
6354;SDS011;3210;48.708;9.030;2023-11-18T02:15:52;3.20;;;2.60;;
6354;SDS011;3210;48.708;9.030;2023-11-18T02:21:45;3.20;;;2.97;;
6354;SDS011;3210;48.708;9.030;2023-11-18T02:24:24;3.50;;;3.20;;
6354;SDS011;3210;48.708;9.030;2023-11-18T02:26:53;7.80;;;3.10;;
6354;SDS011;3210;48.708;9.030;2023-11-18T02:29:20;2.70;;;2.50;;
6354;SDS011;3210;48.708;9.030;2023-11-18T02:31:50;8.67;;;3.60;;
6354;SDS011;3210;48.708;9.030;2023-11-18T02:34:22;3.60;;;3.30;;
6354;SDS011;3210;48.708;9.030;2023-11-18T02:36:53;11.83;;;3.83;;
6354;SDS011;3210;48.708;9.030;2023-11-18T02:39:27;3.43;;;3.13;;
6354;SDS011;3210;48.708;9.030;2023-11-18T02:41:59;4.90;;;3.93;;
6354;SDS011;3210;48.708;9.030;2023-11-18T02:44:29;3.43;;;3.00;;
6354;SDS011;3210;48.708;9.030;2023-11-18T02:46:58;4.37;;;3.93;;
6354;SDS011;3210;48.708;9.030;2023-11-18T02:49:25;4.30;;;3.23;;
6354;SDS011;3210;48.708;9.030;2023-11-18T02:51:52;5.13;;;3.33;;
6354;SDS011;3210;48.708;9.030;2023-11-18T02:54:20;4.73;;;3.80;;
6354;SDS011;3210;48.708;9.030;2023-11-18T02:56:47;3.50;;;3.20;;
6354;SDS011;3210;48.708;9.030;2023-11-18T02:59:15;3.53;;;2.47;;
6354;SDS011;3210;48.708;9.030;2023-11-18T03:01:42;3.87;;;3.30;;
6354;SDS011;3210;48.708;9.030;2023-11-18T03:04:09;6.80;;;6.10;;
6354;SDS011;3210;48.708;9.030;2023-11-18T03:06:36;3.60;;;3.30;;
6354;SDS011;3210;48.708;9.030;2023-11-18T03:09:03;4.00;;;3.70;;
6354;SDS011;3210;48.708;9.030;2023-11-18T03:11:32;3.87;;;3.50;;
6354;SDS011;3210;48.708;9.030;2023-11-18T03:13:59;7.30;;;3.53;;
6354;SDS011;3210;48.708;9.030;2023-11-18T03:16:27;4.70;;;3.67;;
6354;SDS011;3210;48.708;9.030;2023-11-18T03:18:54;3.80;;;3.20;;
6354;SDS011;3210;48.708;9.030;2023-11-18T03:21:21;3.83;;;3.50;;
6354;SDS011;3210;48.708;9.030;2023-11-18T03:23:47;4.70;;;3.20;;
6354;SDS011;3210;48.708;9.030;2023-11-18T03:26:14;4.93;;;3.67;;
6354;SDS011;3210;48.708;9.030;2023-11-18T03:28:41;4.53;;;3.67;;
6354;SDS011;3210;48.708;9.030;2023-11-18T03:31:07;3.53;;;3.27;;
6354;SDS011;3210;48.708;9.030;2023-11-18T03:33:37;4.63;;;4.17;;
6354;SDS011;3210;48.708;9.030;2023-11-18T03:36:05;7.20;;;3.70;;
6354;SDS011;3210;48.708;9.030;2023-11-18T03:38:33;5.43;;;3.67;;
6354;SDS011;3210;48.708;9.030;2023-11-18T03:41:00;5.20;;;4.27;;
6354;SDS011;3210;48.708;9.030;2023-11-18T03:43:27;6.80;;;4.40;;
6354;SDS011;3210;48.708;9.030;2023-11-18T03:45:53;10.43;;;4.83;;
6354;SDS011;3210;48.708;9.030;2023-11-18T03:48:21;4.53;;;4.00;;
6354;SDS011;3210;48.708;9.030;2023-11-18T03:50:49;4.50;;;4.03;;
6354;SDS011;3210;48.708;9.030;2023-11-18T03:53:16;6.97;;;5.20;;
6354;SDS011;3210;48.708;9.030;2023-11-18T03:55:43;5.10;;;4.60;;
6354;SDS011;3210;48.708;9.030;2023-11-18T03:58:10;8.20;;;5.37;;
6354;SDS011;3210;48.708;9.030;2023-11-18T04:00:36;5.37;;;4.70;;
6354;SDS011;3210;48.708;9.030;2023-11-18T04:03:03;5.47;;;4.97;;
6354;SDS011;3210;48.708;9.030;2023-11-18T04:05:32;8.23;;;6.23;;
6354;SDS011;3210;48.708;9.030;2023-11-18T04:08:01;4.77;;;4.37;;
6354;SDS011;3210;48.708;9.030;2023-11-18T04:10:27;6.23;;;4.73;;
6354;SDS011;3210;48.708;9.030;2023-11-18T04:12:54;6.20;;;5.03;;
6354;SDS011;3210;48.708;9.030;2023-11-18T04:15:22;6.43;;;5.83;;
6354;SDS011;3210;48.708;9.030;2023-11-18T04:17:49;6.67;;;6.03;;
6354;SDS011;3210;48.708;9.030;2023-11-18T04:20:17;5.57;;;4.97;;
6354;SDS011;3210;48.708;9.030;2023-11-18T04:22:44;8.63;;;5.97;;
6354;SDS011;3210;48.708;9.030;2023-11-18T04:25:12;5.57;;;5.07;;
6354;SDS011;3210;48.708;9.030;2023-11-18T04:27:40;4.93;;;4.53;;
6354;SDS011;3210;48.708;9.030;2023-11-18T04:30:07;6.27;;;5.67;;
6354;SDS011;3210;48.708;9.030;2023-11-18T04:32:34;8.00;;;6.70;;
6354;SDS011;3210;48.708;9.030;2023-11-18T04:35:01;6.77;;;5.07;;
6354;SDS011;3210;48.708;9.030;2023-11-18T04:37:32;7.80;;;5.50;;
6354;SDS011;3210;48.708;9.030;2023-11-18T04:39:59;8.10;;;5.17;;
6354;SDS011;3210;48.708;9.030;2023-11-18T04:42:27;5.47;;;4.23;;
6354;SDS011;3210;48.708;9.030;2023-11-18T04:44:54;6.73;;;5.30;;
6354;SDS011;3210;48.708;9.030;2023-11-18T04:47:21;6.70;;;4.73;;
6354;SDS011;3210;48.708;9.030;2023-11-18T04:49:50;5.17;;;4.67;;
6354;SDS011;3210;48.708;9.030;2023-11-18T04:52:16;6.40;;;4.67;;
6354;SDS011;3210;48.708;9.030;2023-11-18T04:54:43;4.53;;;4.10;;
6354;SDS011;3210;48.708;9.030;2023-11-18T04:57:12;5.80;;;5.10;;
6354;SDS011;3210;48.708;9.030;2023-11-18T04:59:41;4.77;;;4.33;;
6354;SDS011;3210;48.708;9.030;2023-11-18T05:02:07;4.57;;;4.17;;
6354;SDS011;3210;48.708;9.030;2023-11-18T05:04:34;5.40;;;4.90;;
6354;SDS011;3210;48.708;9.030;2023-11-18T05:07:01;3.90;;;3.60;;
6354;SDS011;3210;48.708;9.030;2023-11-18T05:09:29;5.90;;;4.17;;
6354;SDS011;3210;48.708;9.030;2023-11-18T05:11:57;4.97;;;4.50;;
6354;SDS011;3210;48.708;9.030;2023-11-18T05:14:24;6.10;;;4.90;;
6354;SDS011;3210;48.708;9.030;2023-11-18T05:16:52;5.23;;;4.43;;
6354;SDS011;3210;48.708;9.030;2023-11-18T05:19:19;10.00;;;4.87;;
6354;SDS011;3210;48.708;9.030;2023-11-18T05:21:46;4.83;;;4.30;;
6354;SDS011;3210;48.708;9.030;2023-11-18T05:24:14;5.63;;;4.60;;
6354;SDS011;3210;48.708;9.030;2023-11-18T05:26:41;5.00;;;4.50;;
6354;SDS011;3210;48.708;9.030;2023-11-18T05:29:07;8.17;;;4.00;;
6354;SDS011;3210;48.708;9.030;2023-11-18T05:31:35;3.93;;;3.53;;
6354;SDS011;3210;48.708;9.030;2023-11-18T05:34:03;5.10;;;4.37;;
6354;SDS011;3210;48.708;9.030;2023-11-18T05:36:30;5.10;;;4.60;;
6354;SDS011;3210;48.708;9.030;2023-11-18T05:39:02;6.03;;;4.20;;
6354;SDS011;3210;48.708;9.030;2023-11-18T05:41:30;7.10;;;4.70;;
6354;SDS011;3210;48.708;9.030;2023-11-18T05:43:57;6.43;;;4.90;;
6354;SDS011;3210;48.708;9.030;2023-11-18T05:46:24;11.47;;;4.67;;
6354;SDS011;3210;48.708;9.030;2023-11-18T05:48:54;9.80;;;4.80;;
6354;SDS011;3210;48.708;9.030;2023-11-18T05:51:24;4.90;;;3.80;;
6354;SDS011;3210;48.708;9.030;2023-11-18T05:53:51;4.40;;;3.70;;
6354;SDS011;3210;48.708;9.030;2023-11-18T05:56:19;5.70;;;4.60;;
6354;SDS011;3210;48.708;9.030;2023-11-18T05:58:47;5.77;;;3.97;;
6354;SDS011;3210;48.708;9.030;2023-11-18T06:01:15;6.60;;;4.07;;
6354;SDS011;3210;48.708;9.030;2023-11-18T06:03:42;4.20;;;3.90;;
6354;SDS011;3210;48.708;9.030;2023-11-18T06:06:09;4.10;;;3.70;;
6354;SDS011;3210;48.708;9.030;2023-11-18T06:08:40;4.90;;;3.93;;
6354;SDS011;3210;48.708;9.030;2023-11-18T06:11:07;4.43;;;3.83;;
6354;SDS011;3210;48.708;9.030;2023-11-18T06:13:39;5.07;;;3.77;;
6354;SDS011;3210;48.708;9.030;2023-11-18T06:16:12;10.77;;;4.40;;
6354;SDS011;3210;48.708;9.030;2023-11-18T06:18:40;5.10;;;3.67;;
6354;SDS011;3210;48.708;9.030;2023-11-18T06:21:10;5.07;;;3.47;;
6354;SDS011;3210;48.708;9.030;2023-11-18T06:23:39;4.43;;;3.80;;
6354;SDS011;3210;48.708;9.030;2023-11-18T06:26:06;4.10;;;3.77;;
6354;SDS011;3210;48.708;9.030;2023-11-18T06:28:35;5.77;;;3.80;;
6354;SDS011;3210;48.708;9.030;2023-11-18T06:31:02;6.20;;;3.90;;
6354;SDS011;3210;48.708;9.030;2023-11-18T06:33:29;5.93;;;3.70;;
6354;SDS011;3210;48.708;9.030;2023-11-18T06:35:57;3.50;;;3.20;;
6354;SDS011;3210;48.708;9.030;2023-11-18T06:38:25;6.90;;;4.00;;
6354;SDS011;3210;48.708;9.030;2023-11-18T06:40:56;5.90;;;4.37;;
6354;SDS011;3210;48.708;9.030;2023-11-18T06:43:24;3.30;;;3.00;;
6354;SDS011;3210;48.708;9.030;2023-11-18T06:46:00;7.33;;;3.93;;
6354;SDS011;3210;48.708;9.030;2023-11-18T06:48:27;3.83;;;3.30;;
6354;SDS011;3210;48.708;9.030;2023-11-18T06:50:54;15.30;;;4.00;;
6354;SDS011;3210;48.708;9.030;2023-11-18T06:53:21;6.53;;;3.30;;
6354;SDS011;3210;48.708;9.030;2023-11-18T06:55:47;4.70;;;4.20;;
6354;SDS011;3210;48.708;9.030;2023-11-18T06:58:15;5.30;;;3.70;;
6354;SDS011;3210;48.708;9.030;2023-11-18T07:00:43;5.80;;;4.50;;
6354;SDS011;3210;48.708;9.030;2023-11-18T07:03:10;19.53;;;4.57;;
6354;SDS011;3210;48.708;9.030;2023-11-18T07:05:38;7.43;;;4.33;;
6354;SDS011;3210;48.708;9.030;2023-11-18T07:08:05;8.83;;;4.17;;
6354;SDS011;3210;48.708;9.030;2023-11-18T07:10:33;5.50;;;4.87;;
6354;SDS011;3210;48.708;9.030;2023-11-18T07:13:03;10.53;;;5.47;;
6354;SDS011;3210;48.708;9.030;2023-11-18T07:15:31;14.13;;;5.67;;
6354;SDS011;3210;48.708;9.030;2023-11-18T07:17:57;7.53;;;5.20;;
6354;SDS011;3210;48.708;9.030;2023-11-18T07:20:24;6.40;;;4.83;;
6354;SDS011;3210;48.708;9.030;2023-11-18T07:22:51;5.80;;;4.70;;
6354;SDS011;3210;48.708;9.030;2023-11-18T07:25:18;6.97;;;5.83;;
6354;SDS011;3210;48.708;9.030;2023-11-18T07:27:44;10.67;;;7.13;;
6354;SDS011;3210;48.708;9.030;2023-11-18T07:30:11;7.17;;;5.80;;
6354;SDS011;3210;48.708;9.030;2023-11-18T07:32:40;9.97;;;6.00;;
6354;SDS011;3210;48.708;9.030;2023-11-18T07:35:07;10.73;;;6.57;;
6354;SDS011;3210;48.708;9.030;2023-11-18T07:37:35;8.50;;;6.47;;
6354;SDS011;3210;48.708;9.030;2023-11-18T07:40:02;9.47;;;7.27;;
6354;SDS011;3210;48.708;9.030;2023-11-18T07:42:30;7.87;;;5.43;;
6354;SDS011;3210;48.708;9.030;2023-11-18T07:44:59;7.00;;;6.20;;
6354;SDS011;3210;48.708;9.030;2023-11-18T07:47:28;9.27;;;5.80;;
6354;SDS011;3210;48.708;9.030;2023-11-18T07:49:57;8.27;;;6.33;;
6354;SDS011;3210;48.708;9.030;2023-11-18T07:52:25;8.87;;;6.27;;
6354;SDS011;3210;48.708;9.030;2023-11-18T07:54:54;10.63;;;6.70;;
6354;SDS011;3210;48.708;9.030;2023-11-18T07:57:20;8.20;;;5.80;;
6354;SDS011;3210;48.708;9.030;2023-11-18T07:59:48;7.40;;;5.00;;
6354;SDS011;3210;48.708;9.030;2023-11-18T08:02:16;8.17;;;5.73;;
6354;SDS011;3210;48.708;9.030;2023-11-18T08:04:45;9.17;;;5.93;;
6354;SDS011;3210;48.708;9.030;2023-11-18T08:07:13;20.67;;;8.27;;
6354;SDS011;3210;48.708;9.030;2023-11-18T08:09:39;9.93;;;6.37;;
6354;SDS011;3210;48.708;9.030;2023-11-18T08:12:08;12.90;;;7.60;;
6354;SDS011;3210;48.708;9.030;2023-11-18T08:14:35;10.90;;;5.83;;
6354;SDS011;3210;48.708;9.030;2023-11-18T08:17:02;6.70;;;5.07;;
6354;SDS011;3210;48.708;9.030;2023-11-18T08:19:30;10.83;;;5.40;;
6354;SDS011;3210;48.708;9.030;2023-11-18T08:21:59;14.50;;;7.00;;
6354;SDS011;3210;48.708;9.030;2023-11-18T08:24:27;6.90;;;4.57;;
6354;SDS011;3210;48.708;9.030;2023-11-18T08:26:54;5.33;;;4.83;;
6354;SDS011;3210;48.708;9.030;2023-11-18T08:29:21;6.10;;;5.47;;
6354;SDS011;3210;48.708;9.030;2023-11-18T08:31:49;5.80;;;4.70;;
6354;SDS011;3210;48.708;9.030;2023-11-18T08:34:16;4.80;;;4.20;;
6354;SDS011;3210;48.708;9.030;2023-11-18T08:36:43;5.50;;;3.90;;
6354;SDS011;3210;48.708;9.030;2023-11-18T08:39:10;14.13;;;3.60;;
6354;SDS011;3210;48.708;9.030;2023-11-18T08:41:40;5.97;;;4.40;;
6354;SDS011;3210;48.708;9.030;2023-11-18T08:44:08;6.10;;;2.97;;
6354;SDS011;3210;48.708;9.030;2023-11-18T08:46:38;3.37;;;3.07;;
6354;SDS011;3210;48.708;9.030;2023-11-18T08:49:04;16.83;;;3.33;;
6354;SDS011;3210;48.708;9.030;2023-11-18T08:51:36;5.10;;;3.43;;
6354;SDS011;3210;48.708;9.030;2023-11-18T08:54:04;4.03;;;2.60;;
6354;SDS011;3210;48.708;9.030;2023-11-18T08:56:48;4.10;;;2.37;;
6354;SDS011;3210;48.708;9.030;2023-11-18T08:59:17;2.20;;;2.10;;
6354;SDS011;3210;48.708;9.030;2023-11-18T09:01:50;2.23;;;2.00;;
6354;SDS011;3210;48.708;9.030;2023-11-18T09:04:20;2.40;;;2.20;;
6354;SDS011;3210;48.708;9.030;2023-11-18T09:06:47;2.00;;;1.90;;
6354;SDS011;3210;48.708;9.030;2023-11-18T09:09:14;9.73;;;3.30;;
6354;SDS011;3210;48.708;9.030;2023-11-18T09:11:41;3.23;;;2.20;;
6354;SDS011;3210;48.708;9.030;2023-11-18T09:14:09;2.73;;;2.30;;
6354;SDS011;3210;48.708;9.030;2023-11-18T09:16:36;3.67;;;2.00;;
6354;SDS011;3210;48.708;9.030;2023-11-18T09:19:07;2.10;;;1.93;;
6354;SDS011;3210;48.708;9.030;2023-11-18T09:21:34;2.13;;;1.93;;
6354;SDS011;3210;48.708;9.030;2023-11-18T09:24:01;1.97;;;1.87;;
6354;SDS011;3210;48.708;9.030;2023-11-18T09:26:30;2.57;;;1.90;;
6354;SDS011;3210;48.708;9.030;2023-11-18T09:28:57;3.33;;;2.70;;
6354;SDS011;3210;48.708;9.030;2023-11-18T09:31:27;2.40;;;2.20;;
6354;SDS011;3210;48.708;9.030;2023-11-18T09:33:56;3.90;;;1.93;;
6354;SDS011;3210;48.708;9.030;2023-11-18T09:36:23;5.03;;;2.50;;
6354;SDS011;3210;48.708;9.030;2023-11-18T09:38:53;3.83;;;1.90;;
6354;SDS011;3210;48.708;9.030;2023-11-18T09:41:22;8.23;;;1.53;;
6354;SDS011;3210;48.708;9.030;2023-11-18T09:43:50;3.00;;;1.70;;
6354;SDS011;3210;48.708;9.030;2023-11-18T09:46:22;4.17;;;1.87;;
6354;SDS011;3210;48.708;9.030;2023-11-18T09:48:51;2.40;;;1.73;;
6354;SDS011;3210;48.708;9.030;2023-11-18T09:51:25;2.43;;;1.90;;
6354;SDS011;3210;48.708;9.030;2023-11-18T09:53:55;7.80;;;1.60;;
6354;SDS011;3210;48.708;9.030;2023-11-18T09:56:30;2.07;;;1.63;;
6354;SDS011;3210;48.708;9.030;2023-11-18T09:59:05;1.97;;;1.40;;
6354;SDS011;3210;48.708;9.030;2023-11-18T10:01:43;3.33;;;2.43;;
6354;SDS011;3210;48.708;9.030;2023-11-18T10:04:16;1.97;;;1.50;;
6354;SDS011;3210;48.708;9.030;2023-11-18T10:06:44;1.47;;;1.37;;
6354;SDS011;3210;48.708;9.030;2023-11-18T10:09:11;1.23;;;1.10;;
6354;SDS011;3210;48.708;9.030;2023-11-18T10:11:43;2.70;;;1.93;;
6354;SDS011;3210;48.708;9.030;2023-11-18T10:14:11;1.70;;;1.60;;
6354;SDS011;3210;48.708;9.030;2023-11-18T10:16:40;3.90;;;2.00;;
6354;SDS011;3210;48.708;9.030;2023-11-18T10:19:11;5.43;;;1.80;;
6354;SDS011;3210;48.708;9.030;2023-11-18T10:21:39;2.60;;;1.87;;
6354;SDS011;3210;48.708;9.030;2023-11-18T10:24:06;1.00;;;0.90;;
6354;SDS011;3210;48.708;9.030;2023-11-18T10:26:39;1.80;;;1.00;;
6354;SDS011;3210;48.708;9.030;2023-11-18T10:29:10;4.17;;;0.93;;
6354;SDS011;3210;48.708;9.030;2023-11-18T10:31:38;3.27;;;1.57;;
6354;SDS011;3210;48.708;9.030;2023-11-18T10:34:10;0.93;;;0.87;;
6354;SDS011;3210;48.708;9.030;2023-11-18T10:36:41;3.07;;;1.27;;
6354;SDS011;3210;48.708;9.030;2023-11-18T10:39:27;2.80;;;2.33;;
6354;SDS011;3210;48.708;9.030;2023-11-18T10:41:57;1.57;;;1.17;;
6354;SDS011;3210;48.708;9.030;2023-11-18T10:44:25;2.03;;;1.60;;
6354;SDS011;3210;48.708;9.030;2023-11-18T10:46:52;2.07;;;1.20;;
6354;SDS011;3210;48.708;9.030;2023-11-18T10:49:20;4.33;;;1.13;;
6354;SDS011;3210;48.708;9.030;2023-11-18T10:51:48;8.30;;;1.47;;
6354;SDS011;3210;48.708;9.030;2023-11-18T10:54:17;1.67;;;1.20;;
6354;SDS011;3210;48.708;9.030;2023-11-18T10:56:47;2.37;;;1.03;;
6354;SDS011;3210;48.708;9.030;2023-11-18T10:59:15;2.33;;;1.00;;
6354;SDS011;3210;48.708;9.030;2023-11-18T11:01:43;3.57;;;1.17;;
6354;SDS011;3210;48.708;9.030;2023-11-18T11:04:14;6.37;;;1.13;;
6354;SDS011;3210;48.708;9.030;2023-11-18T11:06:48;2.83;;;1.00;;
6354;SDS011;3210;48.708;9.030;2023-11-18T11:09:24;7.90;;;2.30;;
6354;SDS011;3210;48.708;9.030;2023-11-18T11:12:02;3.70;;;2.43;;
6354;SDS011;3210;48.708;9.030;2023-11-18T11:14:41;4.53;;;1.10;;
6354;SDS011;3210;48.708;9.030;2023-11-18T11:17:19;2.90;;;1.17;;
6354;SDS011;3210;48.708;9.030;2023-11-18T11:19:53;3.20;;;1.10;;
6354;SDS011;3210;48.708;9.030;2023-11-18T11:22:37;2.37;;;1.17;;
6354;SDS011;3210;48.708;9.030;2023-11-18T11:25:14;1.20;;;0.90;;
6354;SDS011;3210;48.708;9.030;2023-11-18T11:27:50;1.67;;;1.57;;
6354;SDS011;3210;48.708;9.030;2023-11-18T11:30:28;0.77;;;0.73;;
6354;SDS011;3210;48.708;9.030;2023-11-18T11:32:58;5.27;;;1.13;;
6354;SDS011;3210;48.708;9.030;2023-11-18T11:35:34;5.00;;;1.30;;
6354;SDS011;3210;48.708;9.030;2023-11-18T11:38:06;2.60;;;1.10;;
6354;SDS011;3210;48.708;9.030;2023-11-18T11:40:38;6.40;;;1.37;;
6354;SDS011;3210;48.708;9.030;2023-11-18T11:43:07;7.20;;;2.00;;
6354;SDS011;3210;48.708;9.030;2023-11-18T11:45:36;1.50;;;1.30;;
6354;SDS011;3210;48.708;9.030;2023-11-18T11:48:04;1.50;;;1.20;;
6354;SDS011;3210;48.708;9.030;2023-11-18T11:50:43;1.10;;;1.00;;
6354;SDS011;3210;48.708;9.030;2023-11-18T11:53:22;7.57;;;2.83;;
6354;SDS011;3210;48.708;9.030;2023-11-18T11:55:53;3.43;;;1.90;;
6354;SDS011;3210;48.708;9.030;2023-11-18T11:58:30;7.57;;;1.70;;
6354;SDS011;3210;48.708;9.030;2023-11-18T12:00:59;10.60;;;1.40;;
6354;SDS011;3210;48.708;9.030;2023-11-18T12:03:32;2.83;;;1.00;;
6354;SDS011;3210;48.708;9.030;2023-11-18T12:06:01;3.80;;;2.00;;
6354;SDS011;3210;48.708;9.030;2023-11-18T12:08:34;1.47;;;1.37;;
6354;SDS011;3210;48.708;9.030;2023-11-18T12:11:01;3.30;;;1.17;;
6354;SDS011;3210;48.708;9.030;2023-11-18T12:13:32;6.43;;;1.60;;
6354;SDS011;3210;48.708;9.030;2023-11-18T12:16:04;1.70;;;1.60;;
6354;SDS011;3210;48.708;9.030;2023-11-18T12:18:35;3.13;;;1.60;;
6354;SDS011;3210;48.708;9.030;2023-11-18T12:21:02;3.73;;;1.83;;
6354;SDS011;3210;48.708;9.030;2023-11-18T12:23:30;5.07;;;3.50;;
6354;SDS011;3210;48.708;9.030;2023-11-18T12:26:00;17.03;;;9.00;;
6354;SDS011;3210;48.708;9.030;2023-11-18T12:28:28;13.33;;;7.00;;
6354;SDS011;3210;48.708;9.030;2023-11-18T12:30:59;5.97;;;3.27;;
6354;SDS011;3210;48.708;9.030;2023-11-18T12:36:41;4.07;;;2.87;;
6354;SDS011;3210;48.708;9.030;2023-11-18T12:39:37;2.97;;;1.77;;
6354;SDS011;3210;48.708;9.030;2023-11-18T12:45:42;3.10;;;1.60;;
6354;SDS011;3210;48.708;9.030;2023-11-18T12:48:25;3.20;;;1.47;;
6354;SDS011;3210;48.708;9.030;2023-11-18T12:50:57;3.43;;;1.80;;
6354;SDS011;3210;48.708;9.030;2023-11-18T12:53:26;1.97;;;1.37;;
6354;SDS011;3210;48.708;9.030;2023-11-18T12:55:55;3.30;;;1.73;;
6354;SDS011;3210;48.708;9.030;2023-11-18T12:58:25;8.30;;;2.30;;
6354;SDS011;3210;48.708;9.030;2023-11-18T13:00:53;3.63;;;1.70;;
6354;SDS011;3210;48.708;9.030;2023-11-18T13:03:20;3.20;;;3.00;;
6354;SDS011;3210;48.708;9.030;2023-11-18T13:05:46;2.70;;;2.50;;
6354;SDS011;3210;48.708;9.030;2023-11-18T13:08:13;4.00;;;2.27;;
6354;SDS011;3210;48.708;9.030;2023-11-18T13:10:41;3.40;;;2.40;;
6354;SDS011;3210;48.708;9.030;2023-11-18T13:13:10;6.77;;;2.07;;
6354;SDS011;3210;48.708;9.030;2023-11-18T13:15:40;4.37;;;2.67;;
6354;SDS011;3210;48.708;9.030;2023-11-18T13:18:07;3.37;;;2.20;;
6354;SDS011;3210;48.708;9.030;2023-11-18T13:20:34;2.90;;;2.70;;
6354;SDS011;3210;48.708;9.030;2023-11-18T13:23:01;7.80;;;2.00;;
6354;SDS011;3210;48.708;9.030;2023-11-18T13:25:33;2.07;;;1.80;;
6354;SDS011;3210;48.708;9.030;2023-11-18T13:28:01;10.83;;;6.00;;
6354;SDS011;3210;48.708;9.030;2023-11-18T13:30:30;4.90;;;2.03;;
6354;SDS011;3210;48.708;9.030;2023-11-18T13:32:58;2.80;;;2.30;;
6354;SDS011;3210;48.708;9.030;2023-11-18T13:35:26;4.70;;;2.57;;
6354;SDS011;3210;48.708;9.030;2023-11-18T13:37:53;4.63;;;2.53;;
6354;SDS011;3210;48.708;9.030;2023-11-18T13:40:21;13.13;;;2.77;;
6354;SDS011;3210;48.708;9.030;2023-11-18T13:42:53;4.40;;;2.03;;
6354;SDS011;3210;48.708;9.030;2023-11-18T13:45:28;5.33;;;2.20;;
6354;SDS011;3210;48.708;9.030;2023-11-18T13:47:55;4.33;;;2.10;;
6354;SDS011;3210;48.708;9.030;2023-11-18T13:50:24;9.70;;;2.43;;
6354;SDS011;3210;48.708;9.030;2023-11-18T13:52:52;4.50;;;2.50;;
6354;SDS011;3210;48.708;9.030;2023-11-18T13:55:19;1.97;;;1.70;;
6354;SDS011;3210;48.708;9.030;2023-11-18T13:57:51;7.70;;;2.73;;
6354;SDS011;3210;48.708;9.030;2023-11-18T14:00:19;3.30;;;2.10;;
6354;SDS011;3210;48.708;9.030;2023-11-18T14:02:48;16.63;;;3.10;;
6354;SDS011;3210;48.708;9.030;2023-11-18T14:05:16;15.33;;;7.87;;
6354;SDS011;3210;48.708;9.030;2023-11-18T14:07:46;4.40;;;2.30;;
6354;SDS011;3210;48.708;9.030;2023-11-18T14:10:13;5.13;;;3.00;;
6354;SDS011;3210;48.708;9.030;2023-11-18T14:15:25;21.07;;;9.50;;
6354;SDS011;3210;48.708;9.030;2023-11-18T14:17:51;4.57;;;3.50;;
6354;SDS011;3210;48.708;9.030;2023-11-18T14:20:18;8.27;;;3.37;;
6354;SDS011;3210;48.708;9.030;2023-11-18T14:22:48;3.60;;;3.23;;
6354;SDS011;3210;48.708;9.030;2023-11-18T14:25:16;8.90;;;2.90;;
6354;SDS011;3210;48.708;9.030;2023-11-18T14:27:43;3.67;;;2.50;;
6354;SDS011;3210;48.708;9.030;2023-11-18T14:30:10;5.03;;;2.60;;
6354;SDS011;3210;48.708;9.030;2023-11-18T14:32:38;4.00;;;2.83;;
6354;SDS011;3210;48.708;9.030;2023-11-18T14:35:05;3.83;;;2.77;;
6354;SDS011;3210;48.708;9.030;2023-11-18T14:37:37;3.40;;;2.80;;
6354;SDS011;3210;48.708;9.030;2023-11-18T14:40:08;3.53;;;2.73;;
6354;SDS011;3210;48.708;9.030;2023-11-18T14:42:40;3.03;;;1.77;;
6354;SDS011;3210;48.708;9.030;2023-11-18T14:45:09;2.00;;;1.80;;
6354;SDS011;3210;48.708;9.030;2023-11-18T14:47:39;4.07;;;2.37;;
6354;SDS011;3210;48.708;9.030;2023-11-18T14:50:06;7.03;;;4.67;;
6354;SDS011;3210;48.708;9.030;2023-11-18T14:52:42;4.20;;;2.47;;
6354;SDS011;3210;48.708;9.030;2023-11-18T14:55:11;2.40;;;2.17;;
6354;SDS011;3210;48.708;9.030;2023-11-18T14:57:38;6.67;;;3.70;;
6354;SDS011;3210;48.708;9.030;2023-11-18T15:00:06;4.00;;;2.57;;
6354;SDS011;3210;48.708;9.030;2023-11-18T15:02:34;4.07;;;2.83;;
6354;SDS011;3210;48.708;9.030;2023-11-18T15:05:01;2.53;;;2.33;;
6354;SDS011;3210;48.708;9.030;2023-11-18T15:07:30;4.53;;;2.30;;
6354;SDS011;3210;48.708;9.030;2023-11-18T15:09:57;4.60;;;2.43;;
6354;SDS011;3210;48.708;9.030;2023-11-18T15:12:25;7.00;;;4.70;;
6354;SDS011;3210;48.708;9.030;2023-11-18T15:14:53;5.27;;;3.30;;
6354;SDS011;3210;48.708;9.030;2023-11-18T15:17:20;4.03;;;2.57;;
6354;SDS011;3210;48.708;9.030;2023-11-18T15:19:47;3.87;;;3.50;;
6354;SDS011;3210;48.708;9.030;2023-11-18T15:22:15;7.07;;;3.70;;
6354;SDS011;3210;48.708;9.030;2023-11-18T15:24:45;5.07;;;3.30;;
6354;SDS011;3210;48.708;9.030;2023-11-18T15:27:12;2.70;;;2.50;;
6354;SDS011;3210;48.708;9.030;2023-11-18T15:29:41;6.27;;;3.60;;
6354;SDS011;3210;48.708;9.030;2023-11-18T15:32:14;4.13;;;1.80;;
6354;SDS011;3210;48.708;9.030;2023-11-18T15:34:42;3.87;;;2.10;;
6354;SDS011;3210;48.708;9.030;2023-11-18T15:37:10;5.23;;;3.33;;